sensor_id;sensor_type;location;lat;lon;timestamp;temperature;humidity
7155;DHT22;3619;53.784;10.440;2024-01-10T00:01:52;-6.20;99.90
7155;DHT22;3619;53.784;10.440;2024-01-10T00:04:19;-6.20;99.90
7155;DHT22;3619;53.784;10.440;2024-01-10T00:06:46;-6.10;99.90
7155;DHT22;3619;53.784;10.440;2024-01-10T00:09:13;-6.20;99.90
7155;DHT22;3619;53.784;10.440;2024-01-10T00:11:39;-6.10;99.90
7155;DHT22;3619;53.784;10.440;2024-01-10T00:14:06;-6.10;99.90
7155;DHT22;3619;53.784;10.440;2024-01-10T00:16:33;-6.10;99.90
7155;DHT22;3619;53.784;10.440;2024-01-10T00:19:01;-6.10;99.90
7155;DHT22;3619;53.784;10.440;2024-01-10T00:21:28;-6.00;99.90
7155;DHT22;3619;53.784;10.440;2024-01-10T00:23:58;-6.10;99.90
7155;DHT22;3619;53.784;10.440;2024-01-10T00:26:25;-6.10;99.90
7155;DHT22;3619;53.784;10.440;2024-01-10T00:28:53;-6.10;99.90
7155;DHT22;3619;53.784;10.440;2024-01-10T00:31:21;-6.20;99.90
7155;DHT22;3619;53.784;10.440;2024-01-10T00:33:48;-6.20;99.90
7155;DHT22;3619;53.784;10.440;2024-01-10T00:36:17;-6.20;99.90
7155;DHT22;3619;53.784;10.440;2024-01-10T00:38:44;-6.30;99.90
7155;DHT22;3619;53.784;10.440;2024-01-10T00:41:10;-6.30;99.90
7155;DHT22;3619;53.784;10.440;2024-01-10T00:43:40;-6.30;99.90
7155;DHT22;3619;53.784;10.440;2024-01-10T00:46:07;-6.40;99.90
7155;DHT22;3619;53.784;10.440;2024-01-10T00:48:33;-6.30;99.90
7155;DHT22;3619;53.784;10.440;2024-01-10T00:51:00;-6.30;99.90
7155;DHT22;3619;53.784;10.440;2024-01-10T00:53:29;-6.30;99.90
7155;DHT22;3619;53.784;10.440;2024-01-10T00:55:55;-6.20;99.90
7155;DHT22;3619;53.784;10.440;2024-01-10T00:58:22;-6.20;99.90
7155;DHT22;3619;53.784;10.440;2024-01-10T01:00:49;-6.10;99.90
7155;DHT22;3619;53.784;10.440;2024-01-10T01:03:16;-6.00;99.90
7155;DHT22;3619;53.784;10.440;2024-01-10T01:05:43;-6.00;99.90
7155;DHT22;3619;53.784;10.440;2024-01-10T01:08:09;-6.00;99.90
7155;DHT22;3619;53.784;10.440;2024-01-10T01:10:38;-6.00;99.90
7155;DHT22;3619;53.784;10.440;2024-01-10T01:13:04;-6.00;99.90
7155;DHT22;3619;53.784;10.440;2024-01-10T01:15:31;-6.00;99.90
7155;DHT22;3619;53.784;10.440;2024-01-10T01:17:58;-5.90;99.90
7155;DHT22;3619;53.784;10.440;2024-01-10T01:20:25;-5.90;99.90
7155;DHT22;3619;53.784;10.440;2024-01-10T01:22:52;-5.90;99.90
7155;DHT22;3619;53.784;10.440;2024-01-10T01:25:19;-5.90;99.90
7155;DHT22;3619;53.784;10.440;2024-01-10T01:27:47;-5.80;99.90
7155;DHT22;3619;53.784;10.440;2024-01-10T01:30:14;-5.80;99.90
7155;DHT22;3619;53.784;10.440;2024-01-10T01:32:41;-5.70;99.90
7155;DHT22;3619;53.784;10.440;2024-01-10T01:35:08;-5.70;99.90
7155;DHT22;3619;53.784;10.440;2024-01-10T01:37:35;-5.70;99.90
7155;DHT22;3619;53.784;10.440;2024-01-10T01:40:02;-5.70;99.90
7155;DHT22;3619;53.784;10.440;2024-01-10T01:42:29;-5.70;99.90
7155;DHT22;3619;53.784;10.440;2024-01-10T01:44:57;-5.70;99.90
7155;DHT22;3619;53.784;10.440;2024-01-10T01:47:24;-5.70;99.90
7155;DHT22;3619;53.784;10.440;2024-01-10T01:49:52;-5.70;99.90
7155;DHT22;3619;53.784;10.440;2024-01-10T01:52:19;-5.60;99.90
7155;DHT22;3619;53.784;10.440;2024-01-10T01:54:47;-5.70;99.90
7155;DHT22;3619;53.784;10.440;2024-01-10T01:57:14;-5.60;99.90
7155;DHT22;3619;53.784;10.440;2024-01-10T01:59:42;-5.60;99.90
7155;DHT22;3619;53.784;10.440;2024-01-10T02:02:11;-5.50;99.90
7155;DHT22;3619;53.784;10.440;2024-01-10T02:04:41;-5.50;99.90
7155;DHT22;3619;53.784;10.440;2024-01-10T02:07:09;-5.40;99.90
7155;DHT22;3619;53.784;10.440;2024-01-10T02:09:36;-5.40;99.90
7155;DHT22;3619;53.784;10.440;2024-01-10T02:12:05;-5.40;99.90
7155;DHT22;3619;53.784;10.440;2024-01-10T02:14:35;-5.30;99.90
7155;DHT22;3619;53.784;10.440;2024-01-10T02:17:04;-5.30;99.90
7155;DHT22;3619;53.784;10.440;2024-01-10T02:19:33;-5.20;99.90
7155;DHT22;3619;53.784;10.440;2024-01-10T02:22:00;-5.20;99.90
7155;DHT22;3619;53.784;10.440;2024-01-10T02:24:28;-5.20;99.90
7155;DHT22;3619;53.784;10.440;2024-01-10T02:26:56;-5.10;99.90
7155;DHT22;3619;53.784;10.440;2024-01-10T02:29:23;-5.20;99.90
7155;DHT22;3619;53.784;10.440;2024-01-10T02:31:50;-5.10;99.90
7155;DHT22;3619;53.784;10.440;2024-01-10T02:34:17;-5.10;99.90
7155;DHT22;3619;53.784;10.440;2024-01-10T02:36:44;-5.10;99.90
7155;DHT22;3619;53.784;10.440;2024-01-10T02:39:10;-5.10;99.90
7155;DHT22;3619;53.784;10.440;2024-01-10T02:41:37;-5.00;99.90
7155;DHT22;3619;53.784;10.440;2024-01-10T02:44:05;-5.00;99.90
7155;DHT22;3619;53.784;10.440;2024-01-10T02:46:32;-4.90;99.90
7155;DHT22;3619;53.784;10.440;2024-01-10T02:48:59;-4.80;99.90
7155;DHT22;3619;53.784;10.440;2024-01-10T02:51:27;-4.80;99.90
7155;DHT22;3619;53.784;10.440;2024-01-10T02:53:55;-4.60;99.90
7155;DHT22;3619;53.784;10.440;2024-01-10T02:56:22;-4.60;99.90
7155;DHT22;3619;53.784;10.440;2024-01-10T02:58:49;-4.50;99.90
7155;DHT22;3619;53.784;10.440;2024-01-10T03:01:17;-4.40;99.90
7155;DHT22;3619;53.784;10.440;2024-01-10T03:03:44;-4.40;99.90
7155;DHT22;3619;53.784;10.440;2024-01-10T03:06:11;-4.30;99.90
7155;DHT22;3619;53.784;10.440;2024-01-10T03:08:38;-4.30;99.90
7155;DHT22;3619;53.784;10.440;2024-01-10T03:11:04;-4.30;99.90
7155;DHT22;3619;53.784;10.440;2024-01-10T03:13:31;-4.30;99.90
7155;DHT22;3619;53.784;10.440;2024-01-10T03:15:59;-4.20;99.90
7155;DHT22;3619;53.784;10.440;2024-01-10T03:18:27;-4.20;99.90
7155;DHT22;3619;53.784;10.440;2024-01-10T03:20:54;-4.10;99.90
7155;DHT22;3619;53.784;10.440;2024-01-10T03:23:21;-4.10;99.90
7155;DHT22;3619;53.784;10.440;2024-01-10T03:25:48;-4.10;99.90
7155;DHT22;3619;53.784;10.440;2024-01-10T03:28:15;-4.00;99.90
7155;DHT22;3619;53.784;10.440;2024-01-10T03:30:44;-4.10;99.90
7155;DHT22;3619;53.784;10.440;2024-01-10T03:33:11;-4.00;99.90
7155;DHT22;3619;53.784;10.440;2024-01-10T03:35:39;-4.00;99.90
7155;DHT22;3619;53.784;10.440;2024-01-10T03:38:06;-4.00;99.90
7155;DHT22;3619;53.784;10.440;2024-01-10T03:40:34;-4.00;99.90
7155;DHT22;3619;53.784;10.440;2024-01-10T03:43:01;-3.80;99.90
7155;DHT22;3619;53.784;10.440;2024-01-10T03:45:27;-3.70;99.90
7155;DHT22;3619;53.784;10.440;2024-01-10T03:47:55;-3.70;99.90
7155;DHT22;3619;53.784;10.440;2024-01-10T03:50:22;-3.70;99.90
7155;DHT22;3619;53.784;10.440;2024-01-10T03:52:50;-3.70;99.90
7155;DHT22;3619;53.784;10.440;2024-01-10T03:55:17;-3.60;99.90
7155;DHT22;3619;53.784;10.440;2024-01-10T03:57:44;-3.60;99.90
7155;DHT22;3619;53.784;10.440;2024-01-10T04:00:12;-3.60;99.90
7155;DHT22;3619;53.784;10.440;2024-01-10T04:02:40;-3.60;99.90
7155;DHT22;3619;53.784;10.440;2024-01-10T04:05:07;-3.60;99.90
7155;DHT22;3619;53.784;10.440;2024-01-10T04:07:38;-3.60;99.90
7155;DHT22;3619;53.784;10.440;2024-01-10T04:10:08;-3.50;99.90
7155;DHT22;3619;53.784;10.440;2024-01-10T04:12:36;-3.50;99.90
7155;DHT22;3619;53.784;10.440;2024-01-10T04:15:03;-3.50;99.90
7155;DHT22;3619;53.784;10.440;2024-01-10T04:17:30;-3.50;99.90
7155;DHT22;3619;53.784;10.440;2024-01-10T04:19:58;-3.50;99.90
7155;DHT22;3619;53.784;10.440;2024-01-10T04:22:25;-3.50;99.90
7155;DHT22;3619;53.784;10.440;2024-01-10T04:24:56;-3.50;99.90
7155;DHT22;3619;53.784;10.440;2024-01-10T04:27:25;-3.40;99.90
7155;DHT22;3619;53.784;10.440;2024-01-10T04:29:52;-3.40;99.90
7155;DHT22;3619;53.784;10.440;2024-01-10T04:32:20;-3.40;99.90
7155;DHT22;3619;53.784;10.440;2024-01-10T04:34:47;-3.40;99.90
7155;DHT22;3619;53.784;10.440;2024-01-10T04:37:15;-3.30;99.90
7155;DHT22;3619;53.784;10.440;2024-01-10T04:39:42;-3.20;99.90
7155;DHT22;3619;53.784;10.440;2024-01-10T04:42:10;-3.20;99.90
7155;DHT22;3619;53.784;10.440;2024-01-10T04:44:38;-3.10;99.90
7155;DHT22;3619;53.784;10.440;2024-01-10T04:47:06;-3.10;99.90
7155;DHT22;3619;53.784;10.440;2024-01-10T04:49:36;-3.00;99.90
7155;DHT22;3619;53.784;10.440;2024-01-10T04:52:04;-3.00;99.90
7155;DHT22;3619;53.784;10.440;2024-01-10T04:54:31;-3.00;99.90
7155;DHT22;3619;53.784;10.440;2024-01-10T04:56:58;-3.00;99.90
7155;DHT22;3619;53.784;10.440;2024-01-10T04:59:24;-2.90;99.90
7155;DHT22;3619;53.784;10.440;2024-01-10T05:01:53;-2.90;99.90
7155;DHT22;3619;53.784;10.440;2024-01-10T05:04:21;-2.90;99.90
7155;DHT22;3619;53.784;10.440;2024-01-10T05:06:47;-2.80;99.90
7155;DHT22;3619;53.784;10.440;2024-01-10T05:09:15;-2.80;99.90
7155;DHT22;3619;53.784;10.440;2024-01-10T05:11:42;-2.80;99.90
7155;DHT22;3619;53.784;10.440;2024-01-10T05:14:09;-2.90;99.90
7155;DHT22;3619;53.784;10.440;2024-01-10T05:16:36;-2.90;99.90
7155;DHT22;3619;53.784;10.440;2024-01-10T05:19:06;-2.90;99.90
7155;DHT22;3619;53.784;10.440;2024-01-10T05:21:33;-2.90;99.90
7155;DHT22;3619;53.784;10.440;2024-01-10T05:24:00;-2.90;99.90
7155;DHT22;3619;53.784;10.440;2024-01-10T05:26:28;-2.90;99.90
7155;DHT22;3619;53.784;10.440;2024-01-10T05:28:55;-2.90;99.90
7155;DHT22;3619;53.784;10.440;2024-01-10T05:31:22;-2.90;99.90
7155;DHT22;3619;53.784;10.440;2024-01-10T05:33:51;-2.90;99.90
7155;DHT22;3619;53.784;10.440;2024-01-10T05:36:21;-2.90;99.90
7155;DHT22;3619;53.784;10.440;2024-01-10T05:38:48;-2.90;99.90
7155;DHT22;3619;53.784;10.440;2024-01-10T05:41:15;-2.90;99.90
7155;DHT22;3619;53.784;10.440;2024-01-10T05:43:42;-2.90;99.90
7155;DHT22;3619;53.784;10.440;2024-01-10T05:46:09;-2.90;99.90
7155;DHT22;3619;53.784;10.440;2024-01-10T05:48:36;-2.90;99.90
7155;DHT22;3619;53.784;10.440;2024-01-10T05:51:03;-2.90;99.90
7155;DHT22;3619;53.784;10.440;2024-01-10T05:53:32;-2.90;99.90
7155;DHT22;3619;53.784;10.440;2024-01-10T05:55:58;-2.90;99.90
7155;DHT22;3619;53.784;10.440;2024-01-10T05:58:26;-2.80;99.90
7155;DHT22;3619;53.784;10.440;2024-01-10T06:00:53;-2.80;99.90
7155;DHT22;3619;53.784;10.440;2024-01-10T06:03:20;-2.70;99.90
7155;DHT22;3619;53.784;10.440;2024-01-10T06:05:47;-2.80;99.90
7155;DHT22;3619;53.784;10.440;2024-01-10T06:08:14;-2.80;99.90
7155;DHT22;3619;53.784;10.440;2024-01-10T06:10:42;-2.80;99.90
7155;DHT22;3619;53.784;10.440;2024-01-10T06:13:09;-2.70;99.90
7155;DHT22;3619;53.784;10.440;2024-01-10T06:15:36;-2.70;99.90
7155;DHT22;3619;53.784;10.440;2024-01-10T06:18:04;-2.70;99.90
7155;DHT22;3619;53.784;10.440;2024-01-10T06:20:32;-2.70;99.90
7155;DHT22;3619;53.784;10.440;2024-01-10T06:23:01;-2.70;99.90
7155;DHT22;3619;53.784;10.440;2024-01-10T06:25:28;-2.70;99.90
7155;DHT22;3619;53.784;10.440;2024-01-10T06:27:57;-2.80;99.90
7155;DHT22;3619;53.784;10.440;2024-01-10T06:30:24;-2.80;99.90
7155;DHT22;3619;53.784;10.440;2024-01-10T06:32:50;-2.80;99.90
7155;DHT22;3619;53.784;10.440;2024-01-10T06:35:17;-2.80;99.90
7155;DHT22;3619;53.784;10.440;2024-01-10T06:37:45;-2.80;99.90
7155;DHT22;3619;53.784;10.440;2024-01-10T06:40:13;-2.70;99.90
7155;DHT22;3619;53.784;10.440;2024-01-10T06:42:41;-2.80;99.90
7155;DHT22;3619;53.784;10.440;2024-01-10T06:45:10;-2.80;99.90
7155;DHT22;3619;53.784;10.440;2024-01-10T06:47:37;-2.80;99.90
7155;DHT22;3619;53.784;10.440;2024-01-10T06:50:05;-2.80;99.90
7155;DHT22;3619;53.784;10.440;2024-01-10T06:52:34;-2.80;99.90
7155;DHT22;3619;53.784;10.440;2024-01-10T06:55:01;-2.90;99.90
7155;DHT22;3619;53.784;10.440;2024-01-10T06:57:29;-3.00;99.90
7155;DHT22;3619;53.784;10.440;2024-01-10T06:59:57;-3.00;99.90
7155;DHT22;3619;53.784;10.440;2024-01-10T07:02:26;-3.10;99.90
7155;DHT22;3619;53.784;10.440;2024-01-10T07:04:53;-3.10;99.90
7155;DHT22;3619;53.784;10.440;2024-01-10T07:07:20;-3.00;99.90
7155;DHT22;3619;53.784;10.440;2024-01-10T07:09:47;-3.00;99.90
7155;DHT22;3619;53.784;10.440;2024-01-10T07:12:14;-3.00;99.90
7155;DHT22;3619;53.784;10.440;2024-01-10T07:14:41;-3.00;99.90
7155;DHT22;3619;53.784;10.440;2024-01-10T07:17:08;-3.00;99.90
7155;DHT22;3619;53.784;10.440;2024-01-10T07:19:36;-3.00;99.90
7155;DHT22;3619;53.784;10.440;2024-01-10T07:22:04;-3.00;99.90
7155;DHT22;3619;53.784;10.440;2024-01-10T07:24:30;-3.10;99.90
7155;DHT22;3619;53.784;10.440;2024-01-10T07:26:57;-3.10;99.90
7155;DHT22;3619;53.784;10.440;2024-01-10T07:29:25;-3.10;99.90
7155;DHT22;3619;53.784;10.440;2024-01-10T07:31:52;-3.10;99.90
7155;DHT22;3619;53.784;10.440;2024-01-10T07:34:20;-3.10;99.90
7155;DHT22;3619;53.784;10.440;2024-01-10T07:36:48;-3.10;99.90
7155;DHT22;3619;53.784;10.440;2024-01-10T07:39:15;-3.00;99.90
7155;DHT22;3619;53.784;10.440;2024-01-10T07:41:44;-3.10;99.90
7155;DHT22;3619;53.784;10.440;2024-01-10T07:44:11;-3.10;99.90
7155;DHT22;3619;53.784;10.440;2024-01-10T07:46:38;-3.00;99.90
7155;DHT22;3619;53.784;10.440;2024-01-10T07:49:05;-3.10;99.90
7155;DHT22;3619;53.784;10.440;2024-01-10T07:51:32;-3.10;99.90
7155;DHT22;3619;53.784;10.440;2024-01-10T07:54:00;-3.10;99.90
7155;DHT22;3619;53.784;10.440;2024-01-10T07:56:28;-3.00;99.90
7155;DHT22;3619;53.784;10.440;2024-01-10T07:58:55;-3.00;99.90
7155;DHT22;3619;53.784;10.440;2024-01-10T08:01:22;-3.00;99.90
7155;DHT22;3619;53.784;10.440;2024-01-10T08:03:49;-3.00;99.90
7155;DHT22;3619;53.784;10.440;2024-01-10T08:06:16;-2.80;99.90
7155;DHT22;3619;53.784;10.440;2024-01-10T08:08:43;-2.90;99.90
7155;DHT22;3619;53.784;10.440;2024-01-10T08:11:11;-2.80;99.90
7155;DHT22;3619;53.784;10.440;2024-01-10T08:13:38;-2.80;99.90
7155;DHT22;3619;53.784;10.440;2024-01-10T08:16:06;-2.80;99.90
7155;DHT22;3619;53.784;10.440;2024-01-10T08:18:34;-2.80;99.90
7155;DHT22;3619;53.784;10.440;2024-01-10T08:21:01;-2.80;99.90
7155;DHT22;3619;53.784;10.440;2024-01-10T08:23:30;-2.70;99.90
7155;DHT22;3619;53.784;10.440;2024-01-10T08:25:57;-2.70;99.90
7155;DHT22;3619;53.784;10.440;2024-01-10T08:28:25;-2.70;99.90
7155;DHT22;3619;53.784;10.440;2024-01-10T08:30:53;-2.60;99.90
7155;DHT22;3619;53.784;10.440;2024-01-10T08:33:20;-2.50;99.90
7155;DHT22;3619;53.784;10.440;2024-01-10T08:35:47;-2.60;99.90
7155;DHT22;3619;53.784;10.440;2024-01-10T08:38:14;-2.50;99.90
7155;DHT22;3619;53.784;10.440;2024-01-10T08:40:43;-2.40;99.90
7155;DHT22;3619;53.784;10.440;2024-01-10T08:43:09;-2.40;99.90
7155;DHT22;3619;53.784;10.440;2024-01-10T08:45:38;-2.30;99.90
7155;DHT22;3619;53.784;10.440;2024-01-10T08:48:06;-2.30;99.90
7155;DHT22;3619;53.784;10.440;2024-01-10T08:50:33;-2.20;99.90
7155;DHT22;3619;53.784;10.440;2024-01-10T08:53:00;-2.10;99.90
7155;DHT22;3619;53.784;10.440;2024-01-10T08:55:29;-2.00;99.90
7155;DHT22;3619;53.784;10.440;2024-01-10T08:57:56;-2.00;99.90
7155;DHT22;3619;53.784;10.440;2024-01-10T09:00:23;-2.00;99.90
7155;DHT22;3619;53.784;10.440;2024-01-10T09:02:52;-1.90;99.90
7155;DHT22;3619;53.784;10.440;2024-01-10T09:05:20;-1.90;99.90
7155;DHT22;3619;53.784;10.440;2024-01-10T09:07:48;-1.80;99.90
7155;DHT22;3619;53.784;10.440;2024-01-10T09:10:15;-1.80;99.90
7155;DHT22;3619;53.784;10.440;2024-01-10T09:12:43;-1.80;99.90
7155;DHT22;3619;53.784;10.440;2024-01-10T09:15:12;-1.80;99.90
7155;DHT22;3619;53.784;10.440;2024-01-10T09:17:40;-1.70;99.90
7155;DHT22;3619;53.784;10.440;2024-01-10T09:20:09;-1.70;99.90
7155;DHT22;3619;53.784;10.440;2024-01-10T09:22:43;-1.60;99.90
7155;DHT22;3619;53.784;10.440;2024-01-10T09:25:10;-1.60;99.90
7155;DHT22;3619;53.784;10.440;2024-01-10T09:27:39;-1.50;99.90
7155;DHT22;3619;53.784;10.440;2024-01-10T09:30:07;-1.50;99.90
7155;DHT22;3619;53.784;10.440;2024-01-10T09:32:35;-1.50;99.90
7155;DHT22;3619;53.784;10.440;2024-01-10T09:35:02;-1.50;99.90
7155;DHT22;3619;53.784;10.440;2024-01-10T09:37:31;-1.40;99.90
7155;DHT22;3619;53.784;10.440;2024-01-10T09:39:59;-1.50;99.90
7155;DHT22;3619;53.784;10.440;2024-01-10T09:42:27;-1.40;99.90
7155;DHT22;3619;53.784;10.440;2024-01-10T09:44:57;-1.30;99.90
7155;DHT22;3619;53.784;10.440;2024-01-10T09:47:26;-1.20;99.90
7155;DHT22;3619;53.784;10.440;2024-01-10T09:49:53;-1.10;99.90
7155;DHT22;3619;53.784;10.440;2024-01-10T09:52:25;-1.10;99.90
7155;DHT22;3619;53.784;10.440;2024-01-10T09:54:55;-1.00;99.90
7155;DHT22;3619;53.784;10.440;2024-01-10T09:57:22;-1.00;99.90
7155;DHT22;3619;53.784;10.440;2024-01-10T09:59:51;-0.90;99.90
7155;DHT22;3619;53.784;10.440;2024-01-10T10:02:19;-1.00;99.90
7155;DHT22;3619;53.784;10.440;2024-01-10T10:04:54;-1.00;99.90
7155;DHT22;3619;53.784;10.440;2024-01-10T10:07:23;-1.00;99.90
7155;DHT22;3619;53.784;10.440;2024-01-10T10:09:50;-1.10;99.90
7155;DHT22;3619;53.784;10.440;2024-01-10T10:12:20;-1.30;99.90
7155;DHT22;3619;53.784;10.440;2024-01-10T10:14:47;-1.60;99.90
7155;DHT22;3619;53.784;10.440;2024-01-10T10:17:14;-1.50;99.90
7155;DHT22;3619;53.784;10.440;2024-01-10T10:19:42;-1.30;99.90
7155;DHT22;3619;53.784;10.440;2024-01-10T10:22:09;-1.40;99.90
7155;DHT22;3619;53.784;10.440;2024-01-10T10:24:37;-1.40;99.90
7155;DHT22;3619;53.784;10.440;2024-01-10T10:27:08;-1.40;99.90
7155;DHT22;3619;53.784;10.440;2024-01-10T10:29:39;-1.40;99.90
7155;DHT22;3619;53.784;10.440;2024-01-10T10:32:06;-1.50;99.90
7155;DHT22;3619;53.784;10.440;2024-01-10T10:34:34;-1.60;99.90
7155;DHT22;3619;53.784;10.440;2024-01-10T10:37:01;-1.50;99.90
7155;DHT22;3619;53.784;10.440;2024-01-10T10:39:28;-1.50;99.90
7155;DHT22;3619;53.784;10.440;2024-01-10T10:41:55;-1.40;99.90
7155;DHT22;3619;53.784;10.440;2024-01-10T10:44:24;-1.30;99.90
7155;DHT22;3619;53.784;10.440;2024-01-10T10:46:54;-1.30;99.90
7155;DHT22;3619;53.784;10.440;2024-01-10T10:49:29;-1.30;99.90
7155;DHT22;3619;53.784;10.440;2024-01-10T10:51:58;-1.20;99.90
7155;DHT22;3619;53.784;10.440;2024-01-10T10:54:28;-1.20;99.90
7155;DHT22;3619;53.784;10.440;2024-01-10T10:56:57;-1.30;99.90
7155;DHT22;3619;53.784;10.440;2024-01-10T10:59:26;-1.30;99.90
7155;DHT22;3619;53.784;10.440;2024-01-10T11:01:55;-1.40;99.90
7155;DHT22;3619;53.784;10.440;2024-01-10T11:04:22;-1.30;99.90
7155;DHT22;3619;53.784;10.440;2024-01-10T11:06:49;-1.30;99.90
7155;DHT22;3619;53.784;10.440;2024-01-10T11:09:18;-1.20;99.90
7155;DHT22;3619;53.784;10.440;2024-01-10T11:12:10;-1.20;99.90
7155;DHT22;3619;53.784;10.440;2024-01-10T11:14:54;-1.20;99.90
7155;DHT22;3619;53.784;10.440;2024-01-10T11:17:50;-1.30;99.90
7155;DHT22;3619;53.784;10.440;2024-01-10T11:20:34;-1.40;99.90
7155;DHT22;3619;53.784;10.440;2024-01-10T11:23:27;-1.40;99.90
7155;DHT22;3619;53.784;10.440;2024-01-10T11:25:58;-1.40;99.90
7155;DHT22;3619;53.784;10.440;2024-01-10T11:28:25;-1.50;99.90
7155;DHT22;3619;53.784;10.440;2024-01-10T11:30:53;-1.40;99.90
7155;DHT22;3619;53.784;10.440;2024-01-10T11:33:30;-1.40;99.90
7155;DHT22;3619;53.784;10.440;2024-01-10T11:36:08;-1.30;99.90
7155;DHT22;3619;53.784;10.440;2024-01-10T11:38:43;-1.30;99.90
7155;DHT22;3619;53.784;10.440;2024-01-10T11:41:11;-1.20;99.90
7155;DHT22;3619;53.784;10.440;2024-01-10T11:43:39;-1.20;99.90
7155;DHT22;3619;53.784;10.440;2024-01-10T11:46:06;-1.10;99.90
7155;DHT22;3619;53.784;10.440;2024-01-10T11:48:37;-1.20;99.90
7155;DHT22;3619;53.784;10.440;2024-01-10T11:51:05;-1.20;99.90
7155;DHT22;3619;53.784;10.440;2024-01-10T11:53:42;-1.20;99.90
7155;DHT22;3619;53.784;10.440;2024-01-10T11:56:12;-1.10;99.90
7155;DHT22;3619;53.784;10.440;2024-01-10T11:59:11;-1.20;99.90
7155;DHT22;3619;53.784;10.440;2024-01-10T12:01:44;-1.20;99.90
7155;DHT22;3619;53.784;10.440;2024-01-10T12:04:13;-1.30;99.90
7155;DHT22;3619;53.784;10.440;2024-01-10T12:06:41;-1.30;99.90
7155;DHT22;3619;53.784;10.440;2024-01-10T12:09:08;-1.40;99.90
7155;DHT22;3619;53.784;10.440;2024-01-10T12:11:36;-1.40;99.90
7155;DHT22;3619;53.784;10.440;2024-01-10T12:14:05;-1.40;99.90
7155;DHT22;3619;53.784;10.440;2024-01-10T12:16:33;-1.30;99.90
7155;DHT22;3619;53.784;10.440;2024-01-10T12:18:59;-1.30;99.90
7155;DHT22;3619;53.784;10.440;2024-01-10T12:21:28;-1.40;99.90
7155;DHT22;3619;53.784;10.440;2024-01-10T12:23:55;-1.20;99.90
7155;DHT22;3619;53.784;10.440;2024-01-10T12:26:23;-1.10;99.90
7155;DHT22;3619;53.784;10.440;2024-01-10T12:28:54;-1.20;99.90
7155;DHT22;3619;53.784;10.440;2024-01-10T12:31:21;-1.10;99.90
7155;DHT22;3619;53.784;10.440;2024-01-10T12:33:48;-1.20;99.90
7155;DHT22;3619;53.784;10.440;2024-01-10T12:36:17;-1.30;99.90
7155;DHT22;3619;53.784;10.440;2024-01-10T12:38:47;-1.30;99.90
7155;DHT22;3619;53.784;10.440;2024-01-10T12:41:15;-1.30;99.90
7155;DHT22;3619;53.784;10.440;2024-01-10T12:43:42;-1.30;99.90
7155;DHT22;3619;53.784;10.440;2024-01-10T12:46:10;-1.20;99.90
7155;DHT22;3619;53.784;10.440;2024-01-10T12:48:38;-1.30;99.90
7155;DHT22;3619;53.784;10.440;2024-01-10T12:51:07;-1.20;99.90
7155;DHT22;3619;53.784;10.440;2024-01-10T12:53:35;-1.30;99.90
7155;DHT22;3619;53.784;10.440;2024-01-10T12:56:05;-1.40;99.90
7155;DHT22;3619;53.784;10.440;2024-01-10T12:58:34;-1.40;99.90
7155;DHT22;3619;53.784;10.440;2024-01-10T13:01:02;-1.30;99.90
7155;DHT22;3619;53.784;10.440;2024-01-10T13:03:29;-1.20;99.90
7155;DHT22;3619;53.784;10.440;2024-01-10T13:05:56;-1.20;99.90
7155;DHT22;3619;53.784;10.440;2024-01-10T13:08:24;-1.20;99.90
7155;DHT22;3619;53.784;10.440;2024-01-10T13:10:51;-1.40;99.90
7155;DHT22;3619;53.784;10.440;2024-01-10T13:13:20;-1.30;99.90
7155;DHT22;3619;53.784;10.440;2024-01-10T13:15:47;-1.20;99.90
7155;DHT22;3619;53.784;10.440;2024-01-10T13:18:14;-1.10;99.90
7155;DHT22;3619;53.784;10.440;2024-01-10T13:20:48;-1.10;99.90
7155;DHT22;3619;53.784;10.440;2024-01-10T13:23:15;-1.00;99.90
7155;DHT22;3619;53.784;10.440;2024-01-10T13:25:44;-1.00;99.90
7155;DHT22;3619;53.784;10.440;2024-01-10T13:28:11;-1.10;99.90
7155;DHT22;3619;53.784;10.440;2024-01-10T13:30:39;-1.20;99.90
7155;DHT22;3619;53.784;10.440;2024-01-10T13:33:08;-1.20;99.90
7155;DHT22;3619;53.784;10.440;2024-01-10T13:35:35;-1.30;99.90
7155;DHT22;3619;53.784;10.440;2024-01-10T13:38:03;-1.40;99.90
7155;DHT22;3619;53.784;10.440;2024-01-10T13:40:30;-1.40;99.90
7155;DHT22;3619;53.784;10.440;2024-01-10T13:42:57;-1.30;99.90
7155;DHT22;3619;53.784;10.440;2024-01-10T13:45:28;-1.30;99.90
7155;DHT22;3619;53.784;10.440;2024-01-10T13:47:56;-1.30;99.90
7155;DHT22;3619;53.784;10.440;2024-01-10T13:50:24;-1.30;99.90
7155;DHT22;3619;53.784;10.440;2024-01-10T13:52:56;-1.30;99.90
7155;DHT22;3619;53.784;10.440;2024-01-10T13:55:23;-1.20;99.90
7155;DHT22;3619;53.784;10.440;2024-01-10T13:57:50;-1.30;99.90
7155;DHT22;3619;53.784;10.440;2024-01-10T14:00:19;-1.30;99.90
7155;DHT22;3619;53.784;10.440;2024-01-10T14:02:50;-1.30;99.90
7155;DHT22;3619;53.784;10.440;2024-01-10T14:05:21;-1.30;99.90
7155;DHT22;3619;53.784;10.440;2024-01-10T14:07:49;-1.20;99.90
7155;DHT22;3619;53.784;10.440;2024-01-10T14:10:20;-1.20;99.90
7155;DHT22;3619;53.784;10.440;2024-01-10T14:12:47;-1.20;99.90
7155;DHT22;3619;53.784;10.440;2024-01-10T14:15:14;-1.30;99.90
7155;DHT22;3619;53.784;10.440;2024-01-10T14:17:41;-1.30;99.90
7155;DHT22;3619;53.784;10.440;2024-01-10T14:20:09;-1.30;99.90
7155;DHT22;3619;53.784;10.440;2024-01-10T14:22:41;-1.40;99.90
7155;DHT22;3619;53.784;10.440;2024-01-10T14:25:08;-1.40;99.90
7155;DHT22;3619;53.784;10.440;2024-01-10T14:27:37;-1.40;99.90
7155;DHT22;3619;53.784;10.440;2024-01-10T14:30:07;-1.40;99.90
7155;DHT22;3619;53.784;10.440;2024-01-10T14:32:37;-1.40;99.90
7155;DHT22;3619;53.784;10.440;2024-01-10T14:35:04;-1.40;99.90
7155;DHT22;3619;53.784;10.440;2024-01-10T14:37:32;-1.30;99.90
7155;DHT22;3619;53.784;10.440;2024-01-10T14:40:02;-1.40;99.90
7155;DHT22;3619;53.784;10.440;2024-01-10T14:42:30;-1.40;99.90
7155;DHT22;3619;53.784;10.440;2024-01-10T14:44:59;-1.30;99.90
7155;DHT22;3619;53.784;10.440;2024-01-10T14:47:26;-1.40;99.90
7155;DHT22;3619;53.784;10.440;2024-01-10T14:49:57;-1.40;99.90
7155;DHT22;3619;53.784;10.440;2024-01-10T14:52:24;-1.40;99.90
7155;DHT22;3619;53.784;10.440;2024-01-10T14:54:51;-1.40;99.90
7155;DHT22;3619;53.784;10.440;2024-01-10T14:57:19;-1.40;99.90
7155;DHT22;3619;53.784;10.440;2024-01-10T14:59:47;-1.40;99.90
7155;DHT22;3619;53.784;10.440;2024-01-10T15:02:14;-1.30;99.90
7155;DHT22;3619;53.784;10.440;2024-01-10T15:04:45;-1.30;99.90
7155;DHT22;3619;53.784;10.440;2024-01-10T15:07:12;-1.30;99.90
7155;DHT22;3619;53.784;10.440;2024-01-10T15:09:39;-1.30;99.90
7155;DHT22;3619;53.784;10.440;2024-01-10T15:12:06;-1.40;99.90
7155;DHT22;3619;53.784;10.440;2024-01-10T15:14:35;-1.30;99.90
7155;DHT22;3619;53.784;10.440;2024-01-10T15:17:04;-1.30;99.90
7155;DHT22;3619;53.784;10.440;2024-01-10T15:19:33;-1.30;99.90
7155;DHT22;3619;53.784;10.440;2024-01-10T15:22:00;-1.30;99.90
7155;DHT22;3619;53.784;10.440;2024-01-10T15:24:27;-1.30;99.90
7155;DHT22;3619;53.784;10.440;2024-01-10T15:26:54;-1.30;99.90
7155;DHT22;3619;53.784;10.440;2024-01-10T15:29:24;-1.30;99.90
7155;DHT22;3619;53.784;10.440;2024-01-10T15:31:53;-1.30;99.90
7155;DHT22;3619;53.784;10.440;2024-01-10T15:34:19;-1.30;99.90
7155;DHT22;3619;53.784;10.440;2024-01-10T15:36:46;-1.30;99.90
7155;DHT22;3619;53.784;10.440;2024-01-10T15:39:13;-1.40;99.90
7155;DHT22;3619;53.784;10.440;2024-01-10T15:41:40;-1.40;99.90
7155;DHT22;3619;53.784;10.440;2024-01-10T15:44:07;-1.40;99.90
7155;DHT22;3619;53.784;10.440;2024-01-10T15:46:35;-1.40;99.90
7155;DHT22;3619;53.784;10.440;2024-01-10T15:49:03;-1.30;99.90
7155;DHT22;3619;53.784;10.440;2024-01-10T15:51:30;-1.40;99.90